Bomnak, Russia
Current Conditions -  °F | °C
As of 5:00 AM on Friday 19 Dec 2014 (Local Time) from UHBB Reporting Station
Light Snow Light Snow  
Wind Chill: -14°   Ceiling: Unl
Heat Index: -4°   Visibility: 1.8mi
Dew Point: -4°   Wind: 4mph
Humidity: 100%   Direction: 200°SSW
Pressure: 30.12"   Gusts: NA
Location:  54.71°N, 128.86°E
Report Text: UHBB 182000Z 20002MPS 160V230 2900 -SN NSC M20/M20 Q1020 NOSIGRMK QFE747/0996 36492045
Loading
Personal Weather Stations






























Interactive Weather Map New forecast layout! Learn more

10-Day Weather Forecast

Advertisements
Track Severe Weather on mobile